Time;durP1;ratioP1;P1;durP2;ratioP2;P2;SDS_P1;SDS_P2;PMS_P1;PMS_P2;Temp;Humidity;BMP_temperature;BMP_pressure;BME280_temperature;BME280_humidity;BME280_pressure;Samples;Min_cycle;Max_cycle;Signal;HPM_P1;HPM_P2
2023/03/01 00:00:11;;;;;;;30.33;16.73;;;;;;;8.55;49.56;103314.84;5069056;28;20123;-67
2023/03/01 00:02:37;;;;;;;31.57;14.97;;;;;;;8.21;49.56;103312.63;5071406;28;20543;-67
2023/03/01 00:05:03;;;;;;;31.63;16.67;;;;;;;7.87;51.18;103320.00;5068575;28;20029;-67
2023/03/01 00:07:28;;;;;;;32.47;16.00;;;;;;;7.89;51.19;103318.31;5065435;28;20020;-67
2023/03/01 00:09:54;;;;;;;32.63;17.40;;;;;;;8.03;50.61;103310.19;5071044;28;20587;-67
2023/03/01 00:12:20;;;;;;;28.87;16.47;;;;;;;7.98;50.70;103300.47;5067653;28;20039;-67
2023/03/01 00:14:45;;;;;;;29.17;16.57;;;;;;;7.78;51.50;103298.78;5069044;28;20039;-67
2023/03/01 00:17:11;;;;;;;30.40;16.73;;;;;;;7.74;51.88;103297.75;5068136;28;20036;-67
2023/03/01 00:19:36;;;;;;;32.50;18.20;;;;;;;7.39;52.85;103304.09;5069121;28;20166;-67
2023/03/01 00:22:02;;;;;;;31.70;16.97;;;;;;;7.81;51.60;103301.50;5069150;28;20029;-67
2023/03/01 00:24:27;;;;;;;37.93;18.30;;;;;;;8.25;50.18;103301.50;5069734;28;20541;-67
2023/03/01 00:26:55;;;;;;;30.83;17.10;;;;;;;8.09;50.23;103305.22;5069686;28;20404;-67
2023/03/01 00:29:21;;;;;;;31.80;17.50;;;;;;;8.32;49.54;103294.00;5067278;28;20280;-67
2023/03/01 00:31:47;;;;;;;32.80;17.23;;;;;;;7.53;51.61;103304.66;5068582;28;20437;-68
2023/03/01 00:34:12;;;;;;;35.80;19.17;;;;;;;7.71;51.70;103291.56;5069229;28;20066;-67
2023/03/01 00:36:38;;;;;;;35.73;18.50;;;;;;;7.66;51.22;103299.16;5069524;28;20422;-67
2023/03/01 00:39:05;;;;;;;34.13;18.20;;;;;;;7.06;53.72;103296.59;5052138;28;20044;-68
2023/03/01 00:41:31;;;;;;;34.70;17.00;;;;;;;7.28;53.28;103299.31;5059670;28;20028;-67
2023/03/01 00:43:56;;;;;;;34.83;18.57;;;;;;;7.26;53.64;103300.97;5050821;28;20396;-67
2023/03/01 00:46:25;;;;;;;31.33;18.57;;;;;;;7.55;52.57;103295.22;5068160;28;20140;-67
2023/03/01 00:48:51;;;;;;;39.03;19.37;;;;;;;7.43;52.44;103291.28;5067712;28;20036;-67
2023/03/01 00:51:20;;;;;;;37.33;18.13;;;;;;;7.46;52.94;103293.13;5061523;28;20028;-67
2023/03/01 00:53:46;;;;;;;38.37;19.13;;;;;;;7.85;51.85;103290.38;5067988;28;20032;-67
2023/03/01 00:56:13;;;;;;;38.67;20.00;;;;;;;7.64;52.76;103293.88;5068799;28;20024;-67
2023/03/01 00:58:39;;;;;;;39.47;19.53;;;;;;;7.32;53.38;103297.72;5069060;28;20028;-67
2023/03/01 01:01:17;;;;;;;37.17;20.47;;;;;;;7.42;53.67;103293.81;5068726;28;20299;-67
2023/03/01 01:03:48;;;;;;;42.73;20.23;;;;;;;7.77;52.20;103297.00;5069732;28;20052;-67
2023/03/01 01:06:28;;;;;;;41.53;21.27;;;;;;;7.87;51.99;103282.63;5067843;28;20496;-67
2023/03/01 01:08:55;;;;;;;44.03;22.17;;;;;;;7.92;51.50;103289.78;5066627;28;20028;-67
2023/03/01 01:11:21;;;;;;;43.80;24.00;;;;;;;7.97;51.08;103290.00;5068440;28;20028;-67
2023/03/01 01:13:48;;;;;;;45.37;25.37;;;;;;;7.48;52.25;103294.06;5069346;28;20384;-68
2023/03/01 01:16:18;;;;;;;46.67;25.00;;;;;;;7.99;51.25;103293.53;5051599;28;20412;-67
2023/03/01 01:18:45;;;;;;;50.73;25.53;;;;;;;7.91;51.50;103294.94;5060985;28;20028;-67
2023/03/01 01:21:13;;;;;;;48.57;25.43;;;;;;;7.62;51.71;103290.34;5054126;28;20051;-67
2023/03/01 01:23:40;;;;;;;49.33;26.37;;;;;;;7.38;52.81;103286.72;5049965;28;20090;-67
2023/03/01 01:26:09;;;;;;;51.80;27.93;;;;;;;7.50;52.56;103276.81;5048114;28;20040;-67
2023/03/01 01:28:36;;;;;;;50.23;26.37;;;;;;;7.48;52.14;103278.47;5056534;28;20059;-67
2023/03/01 01:31:01;;;;;;;48.77;27.27;;;;;;;7.57;52.75;103273.66;5068306;28;20034;-67
2023/03/01 01:33:27;;;;;;;52.50;28.30;;;;;;;7.35;52.79;103266.66;5051604;28;20020;-67
2023/03/01 01:35:53;;;;;;;48.10;27.17;;;;;;;7.77;51.70;103251.00;5061801;28;20439;-67
2023/03/01 01:38:19;;;;;;;51.57;28.80;;;;;;;7.46;51.90;103260.19;5068197;28;20029;-67
2023/03/01 01:40:45;;;;;;;54.90;28.90;;;;;;;7.47;52.78;103250.66;5068402;28;20028;-67
2023/03/01 01:43:33;;;;;;;50.63;27.57;;;;;;;7.36;53.15;103251.91;5068368;28;20107;-67
2023/03/01 01:46:15;;;;;;;55.23;28.93;;;;;;;7.23;53.64;103243.59;5067230;28;20076;-67
2023/03/01 01:48:48;;;;;;;47.28;27.65;;;;;;;7.31;53.02;103238.72;5063008;28;20032;-67
2023/03/01 01:51:25;;;;;;;50.53;27.23;;;;;;;7.28;53.33;103231.69;5068424;28;20036;-67
2023/03/01 01:53:56;;;;;;;54.67;30.57;;;;;;;7.19;52.83;103233.88;5049132;28;20033;-67
2023/03/01 01:56:24;;;;;;;56.23;29.93;;;;;;;7.29;52.64;103241.28;5063848;28;20111;-67
2023/03/01 01:58:50;;;;;;;58.07;30.30;;;;;;;7.25;53.34;103239.38;5067114;28;20033;-68
2023/03/01 02:01:16;;;;;;;58.53;30.97;;;;;;;6.94;53.65;103229.34;5067448;28;20123;-68
2023/03/01 02:03:44;;;;;;;61.33;31.43;;;;;;;7.30;53.17;103232.63;5067312;28;20107;-67
2023/03/01 02:06:09;;;;;;;62.70;29.23;;;;;;;7.58;52.55;103225.97;5059635;28;20031;-67
2023/03/01 02:08:38;;;;;;;61.73;33.57;;;;;;;7.60;52.27;103226.91;5049372;28;20108;-68
2023/03/01 02:11:05;;;;;;;58.77;30.97;;;;;;;7.41;52.07;103237.41;5046175;28;20029;-67
2023/03/01 02:13:32;;;;;;;60.17;31.57;;;;;;;7.61;51.42;103227.78;5049853;28;20017;-67
2023/03/01 02:15:58;;;;;;;59.63;30.70;;;;;;;7.19;52.53;103233.88;5067329;28;20032;-67
2023/03/01 02:18:24;;;;;;;65.27;31.40;;;;;;;6.83;52.78;103228.88;5064976;28;20387;-67
2023/03/01 02:21:08;;;;;;;63.40;32.83;;;;;;;6.95;53.62;103224.22;5067117;28;20029;-67
2023/03/01 02:23:34;;;;;;;57.20;29.30;;;;;;;7.51;52.88;103216.09;5067596;28;20024;-67
2023/03/01 02:26:11;;;;;;;60.97;31.53;;;;;;;7.22;52.75;103223.59;5068025;28;20905;-68
2023/03/01 02:28:39;;;;;;;60.37;32.30;;;;;;;7.43;52.09;103215.81;5065869;28;20370;-67
2023/03/01 02:33:56;;;;;;;63.80;32.40;;;;;;;7.07;52.53;103217.75;5068903;28;20031;-68
2023/03/01 02:36:25;;;;;;;65.30;31.60;;;;;;;7.29;52.86;103219.53;5067203;28;20117;-67
2023/03/01 02:38:55;;;;;;;65.03;31.97;;;;;;;7.38;51.86;103219.94;5065944;28;20415;-67
2023/03/01 02:41:23;;;;;;;58.33;30.20;;;;;;;7.53;51.33;103208.38;5077741;28;20051;-67
2023/03/01 02:43:49;;;;;;;55.90;30.23;;;;;;;7.53;50.93;103213.56;5067847;28;20024;-67
2023/03/01 02:46:20;;;;;;;61.33;31.20;;;;;;;7.30;51.73;103216.13;5067049;28;20059;-68
2023/03/01 02:48:51;;;;;;;60.28;31.65;;;;;;;6.75;53.35;103209.47;5066404;28;20032;-68
2023/03/01 02:51:39;;;;;;;64.73;31.27;;;;;;;7.22;52.94;103202.78;5063555;28;20028;-67
2023/03/01 02:54:30;;;;;;;64.13;31.77;;;;;;;7.00;52.97;103195.81;5047308;28;20021;-67
2023/03/01 02:56:56;;;;;;;55.40;30.03;;;;;;;6.95;53.93;103200.81;5052894;28;20029;-67
2023/03/01 02:59:26;;;;;;;62.17;31.07;;;;;;;6.90;53.15;103204.91;5065492;28;20032;-67
2023/03/01 03:01:52;;;;;;;60.10;29.20;;;;;;;7.06;52.60;103201.28;5067039;28;20028;-67
2023/03/01 03:04:19;;;;;;;56.60;28.77;;;;;;;6.95;52.18;103190.41;5067550;28;20369;-68
2023/03/01 03:06:45;;;;;;;58.60;29.47;;;;;;;6.88;52.64;103196.19;5068375;28;20365;-68
2023/03/01 03:09:11;;;;;;;60.37;31.57;;;;;;;6.95;53.00;103187.81;5066439;28;20036;-68
2023/03/01 03:11:39;;;;;;;59.83;28.33;;;;;;;6.93;52.37;103184.25;5067231;28;20452;-67
2023/03/01 03:14:05;;;;;;;55.70;28.93;;;;;;;7.14;51.90;103183.38;5063600;28;20032;-67
2023/03/01 03:16:31;;;;;;;58.87;29.53;;;;;;;7.07;51.83;103183.94;5067172;28;20034;-68
2023/03/01 03:19:04;;;;;;;54.83;27.57;;;;;;;6.96;51.82;103187.00;5062638;28;20036;-68
2023/03/01 03:21:31;;;;;;;56.50;28.33;;;;;;;7.05;51.79;103189.09;5046466;28;20511;-67
2023/03/01 03:23:57;;;;;;;56.83;28.37;;;;;;;6.51;53.14;103185.88;5050597;28;20111;-68
2023/03/01 03:26:22;;;;;;;50.77;27.90;;;;;;;6.71;53.37;103184.16;5051660;28;20024;-68
2023/03/01 03:28:48;;;;;;;59.23;29.47;;;;;;;7.12;52.09;103185.03;5064070;28;20039;-68
2023/03/01 03:31:13;;;;;;;59.20;27.93;;;;;;;6.87;51.74;103177.88;5059663;28;20031;-67
2023/03/01 03:33:38;;;;;;;58.33;28.77;;;;;;;7.28;50.96;103171.84;5050284;28;20325;-68
2023/03/01 03:36:05;;;;;;;55.43;28.50;;;;;;;6.84;53.23;103181.28;5066969;28;20020;-67
2023/03/01 03:38:30;;;;;;;61.47;29.67;;;;;;;7.02;52.43;103185.47;5072049;28;20028;-67
2023/03/01 03:41:04;;;;;;;55.43;28.67;;;;;;;7.36;51.27;103168.66;5060074;28;20040;-67
2023/03/01 03:43:32;;;;;;;59.67;27.87;;;;;;;7.44;51.13;103172.47;5049747;28;20409;-67
2023/03/01 03:45:57;;;;;;;55.67;28.63;;;;;;;7.37;50.38;103170.44;5051386;28;20550;-67
2023/03/01 03:48:24;;;;;;;60.37;29.20;;;;;;;7.27;50.82;103164.84;5051811;28;20037;-70
2023/03/01 03:50:51;;;;;;;54.30;28.10;;;;;;;7.16;51.07;103163.53;5065695;28;20032;-67
2023/03/01 03:53:18;;;;;;;55.10;27.77;;;;;;;7.27;50.91;103162.25;5069195;28;20515;-67
2023/03/01 03:55:44;;;;;;;56.47;27.13;;;;;;;6.91;51.45;103175.50;5069465;28;20024;-67
2023/03/01 03:58:10;;;;;;;56.33;28.90;;;;;;;7.05;50.46;103164.81;5070919;28;20073;-68
2023/03/01 04:00:41;;;;;;;56.53;27.60;;;;;;;7.21;50.40;103164.63;5069116;28;20490;-67
2023/03/01 04:03:08;;;;;;;53.13;27.90;;;;;;;6.95;50.40;103161.81;5068617;28;20036;-68
2023/03/01 04:05:35;;;;;;;53.30;26.93;;;;;;;7.28;49.82;103156.22;5059629;28;20502;-67
2023/03/01 04:08:01;;;;;;;49.13;27.20;;;;;;;7.32;49.62;103156.34;5060887;28;20047;-67
2023/03/01 04:10:28;;;;;;;54.80;27.00;;;;;;;7.13;49.67;103161.69;5070719;28;20024;-67
2023/03/01 04:12:55;;;;;;;52.17;28.67;;;;;;;6.96;49.77;103168.78;5071381;28;20107;-67
2023/03/01 04:15:23;;;;;;;47.30;25.03;;;;;;;6.93;51.18;103171.25;5064353;28;20053;-67
2023/03/01 04:17:50;;;;;;;53.03;26.37;;;;;;;6.61;51.63;103173.34;5048802;28;20052;-67
2023/03/01 04:20:24;;;;;;;54.23;28.70;;;;;;;6.39;52.22;103173.25;5061314;28;20042;-68
2023/03/01 04:22:52;;;;;;;54.90;26.77;;;;;;;6.39;53.41;103173.25;5068516;28;20090;-67
2023/03/01 04:25:17;;;;;;;49.63;26.50;;;;;;;6.51;52.76;103171.19;5068235;28;20098;-68
2023/03/01 04:27:43;;;;;;;56.37;26.70;;;;;;;6.37;54.03;103164.47;5070490;28;20036;-67
2023/03/01 04:30:09;;;;;;;48.03;25.60;;;;;;;5.81;55.73;103167.13;5058331;28;20032;-68
2023/03/01 04:32:34;;;;;;;71.33;28.40;;;;;;;6.16;54.82;103157.50;5066668;28;20043;-67
2023/03/01 04:35:01;;;;;;;58.87;25.27;;;;;;;6.57;54.21;103163.66;5055437;28;20481;-70
2023/03/01 04:37:27;;;;;;;50.70;25.70;;;;;;;6.27;53.94;103158.84;5049494;28;20021;-70
2023/03/01 04:39:52;;;;;;;53.80;26.60;;;;;;;6.26;54.49;103162.31;5061430;28;20036;-67
2023/03/01 04:42:18;;;;;;;54.90;27.50;;;;;;;6.00;53.73;103155.88;5068781;28;20042;-67
2023/03/01 04:44:44;;;;;;;65.70;26.27;;;;;;;5.77;55.08;103154.81;5069322;28;20037;-67
2023/03/01 04:47:10;;;;;;;50.77;25.93;;;;;;;5.99;53.25;103153.22;5068773;28;20127;-67
2023/03/01 04:49:35;;;;;;;43.97;23.27;;;;;;;5.72;55.41;103143.31;5068234;28;20116;-67
2023/03/01 04:52:04;;;;;;;43.20;22.43;;;;;;;5.51;56.68;103146.69;5066068;28;20400;-68
2023/03/01 04:54:34;;;;;;;40.50;21.87;;;;;;;6.03;54.64;103147.34;5049191;28;20032;-67
2023/03/01 04:57:01;;;;;;;43.77;22.57;;;;;;;6.17;53.98;103146.28;5064485;28;20028;-70
2023/03/01 04:59:27;;;;;;;41.63;22.30;;;;;;;6.12;53.61;103137.41;5070111;28;20103;-70
2023/03/01 05:01:55;;;;;;;41.57;23.10;;;;;;;6.19;53.16;103123.88;5070541;28;20135;-70
2023/03/01 05:04:21;;;;;;;43.27;23.83;;;;;;;6.15;53.37;103136.66;5067515;28;20377;-70
2023/03/01 05:06:47;;;;;;;42.50;23.63;;;;;;;5.95;53.37;103128.81;5049309;28;20029;-70
2023/03/01 05:09:12;;;;;;;43.60;23.57;;;;;;;6.10;53.33;103123.47;5048578;28;20401;-70
2023/03/01 05:11:38;;;;;;;41.50;22.13;;;;;;;6.52;52.65;103123.56;5061315;28;20074;-70
2023/03/01 05:14:07;;;;;;;42.83;24.80;;;;;;;6.46;51.59;103120.72;5051604;28;20090;-70
2023/03/01 05:16:33;;;;;;;38.97;21.80;;;;;;;5.92;53.12;103119.19;5068115;28;20420;-70
2023/03/01 05:18:59;;;;;;;42.57;23.50;;;;;;;6.04;52.90;103121.47;5069714;28;20028;-69
2023/03/01 05:21:25;;;;;;;42.70;22.63;;;;;;;6.46;51.36;103123.31;5067875;28;20034;-70
2023/03/01 05:23:51;;;;;;;41.40;23.07;;;;;;;6.06;52.54;103112.06;5068409;28;20031;-70
2023/03/01 05:26:21;;;;;;;45.53;23.77;;;;;;;6.00;52.58;103114.34;5068360;28;20036;-69
2023/03/01 05:28:47;;;;;;;39.43;22.33;;;;;;;6.05;52.55;103109.38;5068640;28;20087;-69
2023/03/01 05:31:12;;;;;;;44.53;22.97;;;;;;;5.73;52.80;103108.78;5064765;28;20527;-70
2023/03/01 05:33:40;;;;;;;43.00;23.70;;;;;;;5.59;53.51;103093.44;5068187;28;20104;-69
2023/03/01 05:36:07;;;;;;;41.63;22.97;;;;;;;5.67;52.90;103087.72;5068965;28;20459;-70
2023/03/01 05:38:32;;;;;;;44.33;23.70;;;;;;;5.81;53.36;103083.16;5068474;28;20027;-69
2023/03/01 05:40:58;;;;;;;44.93;24.63;;;;;;;6.13;51.59;103076.84;5068843;28;20427;-68
2023/03/01 05:43:23;;;;;;;42.73;23.57;;;;;;;6.28;51.71;103081.84;5067309;28;20108;-69
2023/03/01 05:45:48;;;;;;;42.20;23.07;;;;;;;5.89;52.10;103074.91;5067614;28;20048;-68
2023/03/01 05:48:14;;;;;;;39.07;22.43;;;;;;;5.77;52.81;103082.16;5065641;28;20056;-68
2023/03/01 05:50:45;;;;;;;39.13;22.70;;;;;;;6.10;52.58;103074.13;5066822;28;20031;-68
2023/03/01 05:53:16;;;;;;;38.00;21.33;;;;;;;6.10;51.66;103075.00;5059058;28;20025;-68
2023/03/01 05:55:42;;;;;;;37.30;23.10;;;;;;;6.42;50.08;103069.44;5048193;28;20142;-68
2023/03/01 05:58:12;;;;;;;33.37;20.33;;;;;;;5.82;51.68;103072.84;5057641;28;20505;-69
2023/03/01 06:00:39;;;;;;;35.30;21.73;;;;;;;5.44;52.92;103077.16;5068094;28;20300;-70
2023/03/01 06:03:05;;;;;;;39.67;23.07;;;;;;;6.06;51.59;103080.88;5066194;28;20021;-68
2023/03/01 06:05:30;;;;;;;36.97;21.90;;;;;;;5.95;51.52;103082.09;5055771;28;20048;-68
2023/03/01 06:07:59;;;;;;;36.87;21.23;;;;;;;5.88;51.53;103080.91;5067432;28;20052;-68
2023/03/01 06:10:25;;;;;;;40.47;22.47;;;;;;;5.90;51.60;103089.66;5066279;28;20032;-68
2023/03/01 06:12:51;;;;;;;39.27;22.37;;;;;;;5.93;50.81;103082.03;5049959;28;20029;-68
2023/03/01 06:15:16;;;;;;;34.80;20.40;;;;;;;5.85;51.37;103085.06;5047551;28;20031;-68
2023/03/01 06:17:43;;;;;;;35.97;21.37;;;;;;;5.57;51.79;103074.31;5047267;28;20033;-68
2023/03/01 06:20:16;;;;;;;36.37;19.80;;;;;;;5.95;51.26;103077.78;5053020;28;20055;-68
2023/03/01 06:22:42;;;;;;;34.25;20.40;;;;;;;6.09;49.80;103080.13;5068297;28;20157;-68
2023/03/01 06:25:07;;;;;;;32.90;20.07;;;;;;;5.75;50.44;103083.78;5067282;28;20025;-68
2023/03/01 06:27:33;;;;;;;30.30;18.37;;;;;;;5.42;51.88;103083.97;5067478;28;20308;-68
2023/03/01 06:29:58;;;;;;;39.30;20.37;;;;;;;4.93;53.42;103093.75;5066220;28;20023;-68
2023/03/01 06:32:24;;;;;;;34.67;20.30;;;;;;;5.41;52.50;103087.38;5066496;28;20388;-69
2023/03/01 06:34:49;;;;;;;35.10;19.20;;;;;;;5.74;51.54;103097.56;5068663;28;20474;-68
2023/03/01 06:37:15;;;;;;;34.43;18.63;;;;;;;5.63;51.76;103088.41;5065493;28;20502;-69
2023/03/01 06:39:40;;;;;;;36.93;21.07;;;;;;;5.57;51.48;103095.06;5056591;28;20559;-69
2023/03/01 06:42:07;;;;;;;35.53;18.80;;;;;;;5.78;50.64;103099.47;5066627;28;20104;-68
2023/03/01 06:44:33;;;;;;;33.53;19.40;;;;;;;5.47;51.01;103092.88;5065657;28;20889;-69
2023/03/01 06:46:59;;;;;;;36.97;20.10;;;;;;;5.17;52.43;103093.19;5066714;28;20286;-69
2023/03/01 06:49:24;;;;;;;36.57;20.13;;;;;;;5.47;51.86;103098.06;5066915;28;20487;-68
2023/03/01 06:51:50;;;;;;;37.47;21.23;;;;;;;5.59;50.78;103088.25;5062680;28;20176;-68
2023/03/01 06:54:17;;;;;;;34.87;20.73;;;;;;;5.58;50.34;103091.66;5065618;28;20035;-70
2023/03/01 06:56:42;;;;;;;38.87;21.50;;;;;;;5.38;51.39;103087.25;5061839;28;20051;-68
2023/03/01 06:59:08;;;;;;;38.67;22.60;;;;;;;5.01;52.50;103095.84;5064169;28;20302;-68
2023/03/01 07:01:33;;;;;;;43.53;20.63;;;;;;;5.53;51.46;103093.13;5054147;28;20488;-68
2023/03/01 07:03:58;;;;;;;36.43;21.90;;;;;;;5.07;52.58;103096.16;5065392;28;20032;-69
2023/03/01 07:06:24;;;;;;;35.77;20.00;;;;;;;5.43;52.20;103093.53;5065559;28;20444;-69
2023/03/01 07:08:49;;;;;;;31.53;18.70;;;;;;;5.58;51.52;103096.84;5068630;28;20118;-68
2023/03/01 07:11:15;;;;;;;42.17;22.20;;;;;;;5.62;51.61;103095.31;5056141;28;20036;-68
2023/03/01 07:13:41;;;;;;;39.97;22.00;;;;;;;5.26;52.76;103093.63;5061196;28;20054;-68
2023/03/01 07:16:07;;;;;;;39.17;22.20;;;;;;;5.85;51.33;103100.66;5053341;28;20024;-68
2023/03/01 07:18:33;;;;;;;43.23;21.77;;;;;;;5.30;52.12;103093.75;5064753;28;21098;-68
2023/03/01 07:20:58;;;;;;;32.80;19.23;;;;;;;5.65;51.82;103092.84;5068566;28;20037;-68
2023/03/01 07:23:23;;;;;;;39.77;21.23;;;;;;;6.08;50.67;103099.13;5064759;28;20070;-69
2023/03/01 07:25:53;;;;;;;42.60;21.73;;;;;;;6.32;49.91;103093.22;5056238;28;20036;-68
2023/03/01 07:28:19;;;;;;;42.43;22.03;;;;;;;6.25;50.19;103092.06;5066028;28;20020;-68
2023/03/01 07:30:44;;;;;;;38.40;19.43;;;;;;;6.33;51.56;103105.41;5064189;28;20294;-68
2023/03/01 07:33:10;;;;;;;47.67;23.20;;;;;;;6.42;49.84;103100.63;5068110;28;20085;-69
2023/03/01 07:35:35;;;;;;;46.07;23.43;;;;;;;6.40;50.39;103097.97;5069702;28;20480;-68
2023/03/01 07:38:01;;;;;;;41.40;21.27;;;;;;;6.39;49.59;103100.50;5070163;28;20016;-68
2023/03/01 07:40:26;;;;;;;41.60;21.23;;;;;;;6.30;51.31;103100.09;5070698;28;20391;-69
2023/03/01 07:42:58;;;;;;;41.40;22.47;;;;;;;6.86;51.49;103096.41;5053941;28;20031;-68
2023/03/01 07:45:27;;;;;;;47.25;26.02;;;;;;;8.06;49.48;103096.72;5050256;28;20033;-68
2023/03/01 07:47:53;;;;;;;45.70;25.33;;;;;;;8.53;48.97;103099.25;5053667;28;20136;-68
2023/03/01 07:50:19;;;;;;;46.00;24.90;;;;;;;8.86;47.39;103099.53;5057703;28;20491;-68
2023/03/01 07:52:46;;;;;;;45.87;24.13;;;;;;;8.50;47.51;103097.44;5060672;28;20488;-69
2023/03/01 07:55:12;;;;;;;43.30;23.37;;;;;;;8.39;46.98;103101.34;5057170;28;20033;-69
2023/03/01 07:57:38;;;;;;;41.40;22.10;;;;;;;8.41;47.53;103091.88;5070144;28;20396;-68
2023/03/01 08:00:04;;;;;;;46.43;22.77;;;;;;;8.21;48.40;103092.03;5069188;28;20066;-68
2023/03/01 08:02:29;;;;;;;47.83;23.93;;;;;;;8.18;48.33;103091.94;5061711;28;20033;-68
2023/03/01 08:04:55;;;;;;;44.73;23.00;;;;;;;8.20;48.13;103090.28;5070703;28;20036;-68
2023/03/01 08:07:20;;;;;;;42.07;22.23;;;;;;;7.95;48.39;103084.19;5069595;28;20351;-68
2023/03/01 08:09:46;;;;;;;42.67;22.87;;;;;;;7.97;48.66;103082.50;5066921;28;20032;-68
2023/03/01 08:12:11;;;;;;;40.00;20.77;;;;;;;8.10;48.55;103091.66;5071546;28;20031;-68
2023/03/01 08:14:37;;;;;;;39.23;19.70;;;;;;;8.13;48.43;103089.19;5069193;28;20115;-67
2023/03/01 08:17:02;;;;;;;35.20;18.60;;;;;;;7.88;48.33;103092.59;5067436;28;20032;-68
2023/03/01 08:19:29;;;;;;;38.53;18.90;;;;;;;8.05;48.41;103077.59;5066559;28;20066;-68
2023/03/01 08:21:54;;;;;;;34.33;17.40;;;;;;;7.97;48.42;103092.94;5069420;28;20105;-68
2023/03/01 08:24:20;;;;;;;30.57;16.57;;;;;;;8.12;48.13;103083.91;5062466;28;20480;-68
2023/03/01 08:26:45;;;;;;;33.13;17.53;;;;;;;7.92;48.40;103084.06;5066923;28;20028;-68
2023/03/01 08:29:11;;;;;;;23.17;12.43;;;;;;;7.33;48.06;103085.28;5064389;28;20037;-68
2023/03/01 08:31:38;;;;;;;22.47;9.93;;;;;;;7.33;47.30;103082.69;5056049;28;20032;-68
2023/03/01 08:34:11;;;;;;;16.23;9.40;;;;;;;7.33;47.26;103074.88;5057277;28;20029;-67
2023/03/01 08:36:41;;;;;;;22.33;10.25;;;;;;;7.18;48.17;103076.03;5061931;28;20021;-67
2023/03/01 08:39:08;;;;;;;20.07;10.13;;;;;;;7.90;46.25;103077.91;5066579;28;20169;-67
2023/03/01 08:41:34;;;;;;;16.83;10.27;;;;;;;7.08;46.57;103074.78;5057361;28;20401;-68
2023/03/01 08:44:00;;;;;;;15.43;8.73;;;;;;;7.73;45.88;103077.28;5074565;28;20438;-67
2023/03/01 08:46:32;;;;;;;13.93;9.07;;;;;;;7.50;45.77;103079.03;5083028;28;20052;-68
2023/03/01 08:48:57;;;;;;;10.55;6.63;;;;;;;8.06;44.87;103084.56;5062225;28;20033;-68
2023/03/01 08:51:25;;;;;;;13.07;8.43;;;;;;;7.69;45.34;103083.19;5066174;28;20032;-67
2023/03/01 08:53:50;;;;;;;14.80;8.90;;;;;;;7.98;45.83;103068.66;5053616;28;20029;-67
2023/03/01 08:56:18;;;;;;;16.00;9.23;;;;;;;9.07;43.78;103064.56;5064630;28;20036;-67
2023/03/01 08:58:48;;;;;;;15.80;8.00;;;;;;;8.45;44.61;103059.91;5069032;28;20029;-67
2023/03/01 09:01:16;;;;;;;17.20;9.17;;;;;;;9.04;43.68;103069.66;5069823;28;20709;-67
2023/03/01 09:03:42;;;;;;;14.50;8.77;;;;;;;8.37;45.09;103071.75;5069640;28;20107;-68
2023/03/01 09:06:08;;;;;;;17.30;9.13;;;;;;;8.80;44.71;103068.03;5067233;28;20046;-68
2023/03/01 09:08:39;;;;;;;16.80;9.23;;;;;;;9.10;44.04;103059.41;5065894;28;20033;-67
2023/03/01 09:11:10;;;;;;;15.13;8.90;;;;;;;8.80;44.43;103057.59;5057380;28;20380;-68
2023/03/01 09:13:35;;;;;;;14.67;8.47;;;;;;;8.90;43.27;103045.72;5063094;28;20024;-68
2023/03/01 09:16:03;;;;;;;15.87;8.60;;;;;;;8.51;44.51;103054.03;5068951;28;20450;-68
2023/03/01 09:18:29;;;;;;;15.70;9.30;;;;;;;8.90;43.62;103048.34;5064054;28;20082;-68
2023/03/01 09:21:10;;;;;;;16.10;7.80;;;;;;;8.89;42.87;103047.47;5061199;28;20028;-68
2023/03/01 09:23:38;;;;;;;10.43;6.57;;;;;;;8.87;43.53;103045.63;5064114;28;20499;-68
2023/03/01 09:26:05;;;;;;;17.17;7.23;;;;;;;8.22;43.54;103044.31;5055437;28;20033;-68
2023/03/01 09:28:31;;;;;;;16.07;7.73;;;;;;;8.56;42.74;103042.91;5061015;28;20511;-68
2023/03/01 09:31:01;;;;;;;12.87;7.73;;;;;;;9.94;40.57;103041.88;5053406;28;20028;-68
2023/03/01 09:33:28;;;;;;;10.63;6.67;;;;;;;11.35;39.55;103026.22;5057440;28;20056;-68
2023/03/01 09:36:02;;;;;;;9.60;6.20;;;;;;;12.46;36.43;103022.25;5063122;28;20113;-68
2023/03/01 09:38:28;;;;;;;10.40;6.10;;;;;;;13.85;34.85;103020.72;5056841;28;20112;-68
2023/03/01 09:40:53;;;;;;;9.13;6.17;;;;;;;15.24;32.86;103013.97;5063577;28;20060;-68
2023/03/01 09:43:19;;;;;;;15.33;6.20;;;;;;;15.01;30.62;103021.75;5055274;28;20024;-68
2023/03/01 09:45:47;;;;;;;8.27;5.43;;;;;;;15.87;30.89;103023.94;5060018;28;20055;-68
2023/03/01 09:48:26;;;;;;;9.53;5.60;;;;;;;16.03;29.91;103011.63;5063542;28;20032;-68
2023/03/01 09:50:52;;;;;;;9.70;5.27;;;;;;;16.29;28.64;103016.94;5068489;28;20089;-68
2023/03/01 09:53:26;;;;;;;9.17;5.23;;;;;;;15.40;30.15;103021.09;5075415;28;20480;-68
2023/03/01 09:55:54;;;;;;;8.00;5.83;;;;;;;16.53;28.57;103015.22;5077374;28;20110;-68
2023/03/01 09:58:44;;;;;;;10.33;6.00;;;;;;;16.27;28.80;103021.34;5061431;28;20135;-68
2023/03/01 10:01:42;;;;;;;9.87;5.93;;;;;;;17.64;27.43;103012.31;5064132;28;20091;-68
2023/03/01 10:04:41;;;;;;;8.25;5.28;;;;;;;17.25;27.49;103003.63;5053052;28;20031;-68
2023/03/01 10:07:09;;;;;;;11.60;5.40;;;;;;;15.93;28.10;103021.28;5052724;28;21781;-68
2023/03/01 10:09:37;;;;;;;10.82;6.28;;;;;;;16.25;28.11;103007.25;5059629;28;20047;-68
2023/03/01 10:12:09;;;;;;;10.85;5.00;;;;;;;16.01;28.70;103006.38;5054581;28;20028;-68
2023/03/01 10:15:03;;;;;;;7.25;4.85;;;;;;;15.99;28.78;103010.78;5058780;28;20020;-68
2023/03/01 10:17:41;;;;;;;8.25;5.57;;;;;;;16.81;26.87;102999.34;5060082;28;20574;-69
2023/03/01 10:20:15;;;;;;;12.82;5.65;;;;;;;16.05;28.36;102997.56;5058074;28;20028;-68
2023/03/01 10:22:41;;;;;;;8.38;5.53;;;;;;;13.95;30.05;102993.66;5061916;28;20111;-67
2023/03/01 10:25:12;;;;;;;11.53;6.53;;;;;;;15.53;30.23;103005.31;5059523;28;20178;-68
2023/03/01 10:27:53;;;;;;;8.68;6.35;;;;;;;14.95;29.98;102996.25;5061428;28;20021;-67
2023/03/01 10:30:27;;;;;;;11.83;6.47;;;;;;;14.59;30.50;102987.22;5054437;28;20024;-68
2023/03/01 10:32:53;;;;;;;11.43;6.57;;;;;;;14.26;31.37;102991.34;5055815;28;20043;-67
2023/03/01 10:35:20;;;;;;;14.37;7.23;;;;;;;14.31;30.22;102992.22;5054060;28;20498;-68
2023/03/01 10:38:02;;;;;;;10.47;6.47;;;;;;;13.99;31.79;102990.19;5065707;28;20024;-68
2023/03/01 10:40:31;;;;;;;10.70;6.47;;;;;;;14.67;30.68;102990.81;5060362;28;20039;-67
2023/03/01 10:42:59;;;;;;;10.27;6.77;;;;;;;14.80;30.81;102986.50;5063225;28;20032;-67
2023/03/01 10:45:34;;;;;;;9.23;6.60;;;;;;;14.83;30.91;102983.03;5062780;28;20098;-67
2023/03/01 10:48:04;;;;;;;10.43;7.23;;;;;;;14.82;30.11;102983.88;5066899;28;20036;-67
2023/03/01 10:50:30;;;;;;;12.00;6.87;;;;;;;14.20;30.78;102972.84;5065993;28;20024;-68
2023/03/01 10:52:59;;;;;;;10.13;6.30;;;;;;;15.19;30.95;102977.06;5058512;28;20033;-67
2023/03/01 10:55:40;;;;;;;11.57;6.80;;;;;;;14.67;30.93;102980.28;5068018;28;20066;-68
2023/03/01 10:58:14;;;;;;;10.03;6.50;;;;;;;15.56;30.20;102963.16;5056458;28;20382;-68
2023/03/01 11:00:50;;;;;;;9.87;5.93;;;;;;;17.08;27.64;102953.50;5056044;28;20044;-67
2023/03/01 11:03:29;;;;;;;12.03;6.50;;;;;;;13.79;31.15;102954.94;5064948;28;20392;-67
2023/03/01 11:05:58;;;;;;;11.13;6.13;;;;;;;15.66;29.32;102943.88;5060278;28;20123;-68
2023/03/01 11:08:33;;;;;;;13.97;5.77;;;;;;;15.61;28.25;102940.34;5058585;28;20047;-68
2023/03/01 11:11:32;;;;;;;10.23;5.07;;;;;;;15.88;27.64;102936.00;5059052;28;20138;-67
2023/03/01 11:14:04;;;;;;;8.37;5.20;;;;;;;15.00;28.44;102926.06;5060364;28;20029;-67
2023/03/01 11:16:32;;;;;;;10.67;5.73;;;;;;;14.85;28.94;102925.97;5086624;28;20028;-67
2023/03/01 11:19:16;;;;;;;9.10;5.97;;;;;;;14.72;29.98;102920.63;5068976;28;20032;-67
2023/03/01 11:21:55;;;;;;;10.03;6.30;;;;;;;14.59;30.25;102913.53;5064076;28;20086;-67
2023/03/01 11:24:34;;;;;;;8.43;5.97;;;;;;;13.79;31.45;102918.13;5062418;28;20028;-67
2023/03/01 11:27:04;;;;;;;10.27;5.77;;;;;;;13.63;31.87;102915.38;5055453;28;20055;-67